Time;durP1;ratioP1;P1;durP2;ratioP2;P2;SDS_P1;SDS_P2;PMS_P1;PMS_P2;Temp;Humidity;BMP_temperature;BMP_pressure;BME280_temperature;BME280_humidity;BME280_pressure;Samples;Min_cycle;Max_cycle;Signal;HPM_P1;HPM_P2
2022/12/03 00:02:22;;;;;;;98.22;39.35;;;;;;;-1.30;100.00;99839.63;4279231;82;21039;-85
2022/12/03 00:08:24;;;;;;;102.80;38.90;;;;;;;-1.29;100.00;99831.84;4278318;82;21487;-85
2022/12/03 00:14:26;;;;;;;95.90;35.40;;;;;;;-1.26;100.00;99835.32;4280976;82;21055;-84
2022/12/03 00:20:27;;;;;;;105.75;37.10;;;;;;;-1.24;100.00;99842.57;4277925;82;21046;-84
2022/12/03 00:26:28;;;;;;;95.10;35.93;;;;;;;-1.23;100.00;99853.57;4277482;82;21603;-85
2022/12/03 00:32:30;;;;;;;87.33;35.08;;;;;;;-1.21;100.00;99867.53;4276496;82;21551;-84
2022/12/03 00:38:31;;;;;;;95.17;36.25;;;;;;;-1.17;100.00;99863.20;4278583;82;21504;-84
2022/12/03 00:44:33;;;;;;;99.53;34.90;;;;;;;-1.12;100.00;99861.84;4275819;82;20999;-84
2022/12/03 00:50:34;;;;;;;91.53;35.93;;;;;;;-1.08;100.00;99864.78;4278508;82;21455;-84
2022/12/03 00:56:35;;;;;;;91.13;34.97;;;;;;;-1.07;100.00;99847.03;4279356;82;21429;-84
2022/12/03 01:02:36;;;;;;;98.80;35.88;;;;;;;-1.09;100.00;99848.37;4276435;82;21026;-85
2022/12/03 01:08:38;;;;;;;89.87;33.58;;;;;;;-1.10;100.00;99832.00;4278638;81;21949;-85
2022/12/03 01:14:39;;;;;;;99.85;36.10;;;;;;;-1.09;100.00;99838.44;4276241;81;21519;-86
2022/12/03 01:20:41;;;;;;;105.45;36.30;;;;;;;-1.09;100.00;99835.75;4277028;82;21625;-85
2022/12/03 01:26:45;;;;;;;97.70;37.07;;;;;;;-1.08;100.00;99837.91;4283428;82;21142;-85
2022/12/03 01:32:47;;;;;;;106.87;35.90;;;;;;;-1.08;100.00;99822.56;4281624;82;21555;-84
2022/12/03 01:38:49;;;;;;;113.00;37.93;;;;;;;-1.05;100.00;99823.91;4312904;81;21034;-86
2022/12/03 01:44:53;;;;;;;100.70;35.38;;;;;;;-1.04;100.00;99825.50;4305988;81;21331;-86
2022/12/03 01:50:55;;;;;;;101.38;35.78;;;;;;;-1.04;100.00;99830.35;4242123;82;21004;-85
2022/12/03 01:56:57;;;;;;;116.15;39.18;;;;;;;-1.02;100.00;99824.70;4250412;82;21500;-85
2022/12/03 02:03:12;;;;;;;113.85;37.42;;;;;;;-1.02;100.00;99827.38;4286526;81;21007;-85
2022/12/03 02:09:13;;;;;;;133.55;41.73;;;;;;;-1.03;100.00;99831.95;4287606;81;20975;-85
2022/12/03 02:15:15;;;;;;;117.08;38.58;;;;;;;-1.06;100.00;99831.16;4290927;81;21003;-85
2022/12/03 02:21:28;;;;;;;122.60;39.80;;;;;;;-1.10;100.00;99834.16;4286678;80;20987;-85
2022/12/03 02:27:29;;;;;;;130.03;40.45;;;;;;;-1.12;100.00;99825.56;4283367;82;21052;-84
2022/12/03 02:33:31;;;;;;;124.27;38.27;;;;;;;-1.11;100.00;99824.47;4283738;81;21528;-85
2022/12/03 02:39:36;;;;;;;125.60;40.50;;;;;;;-1.12;100.00;99833.63;4288388;82;21034;-85
2022/12/03 02:45:45;;;;;;;140.12;41.92;;;;;;;-1.10;100.00;99836.84;4274297;82;21026;-85
2022/12/03 02:51:46;;;;;;;112.10;37.42;;;;;;;-1.04;100.00;99825.50;4275264;82;20999;-85
2022/12/03 02:57:49;;;;;;;127.07;40.28;;;;;;;-1.01;100.00;99829.79;4254389;82;20992;-85
2022/12/03 03:03:51;;;;;;;143.47;41.85;;;;;;;-0.97;100.00;99832.73;4252769;82;21007;-87
2022/12/03 03:09:52;;;;;;;138.12;41.00;;;;;;;-1.00;100.00;99829.26;4249082;83;21595;-85
2022/12/03 03:15:55;;;;;;;138.73;41.93;;;;;;;-1.03;100.00;99823.88;4252743;82;21106;-85
2022/12/03 03:21:56;;;;;;;142.83;41.17;;;;;;;-0.99;100.00;99824.13;4248719;83;21993;-85
2022/12/03 03:27:58;;;;;;;144.90;41.73;;;;;;;-1.00;100.00;99814.48;4239307;82;21017;-85
2022/12/03 03:33:59;;;;;;;147.68;41.90;;;;;;;-1.02;100.00;99799.98;4241922;82;21012;-85
2022/12/03 03:40:01;;;;;;;143.27;41.90;;;;;;;-1.05;100.00;99807.23;4243071;82;21055;-85
2022/12/03 03:46:04;;;;;;;143.93;40.43;;;;;;;-1.05;100.00;99820.66;4234579;82;21114;-86
2022/12/03 03:52:05;;;;;;;134.00;39.20;;;;;;;-1.04;100.00;99817.45;4238263;82;21131;-85
2022/12/03 03:58:08;;;;;;;141.25;38.63;;;;;;;-1.09;100.00;99807.53;4236884;82;21047;-86
2022/12/03 04:04:22;;;;;;;136.20;39.42;;;;;;;-1.09;100.00;99808.07;4237355;83;21543;-85
2022/12/03 04:16:44;;;;;;;122.95;39.20;;;;;;;-1.09;100.00;99821.50;4235609;82;21004;-85
2022/12/03 04:22:45;;;;;;;121.70;36.37;;;;;;;-1.10;100.00;99820.72;4235064;82;21039;-85
2022/12/03 04:28:49;;;;;;;120.30;35.13;;;;;;;-1.11;100.00;99823.13;4244217;83;21094;-85
2022/12/03 04:41:10;;;;;;;122.42;35.98;;;;;;;-1.05;100.00;99831.97;4246608;82;21375;-85
2022/12/03 04:47:15;;;;;;;125.27;38.20;;;;;;;-1.06;100.00;99827.13;4251199;82;21360;-85
2022/12/03 04:53:17;;;;;;;131.70;37.55;;;;;;;-1.08;100.00;99825.81;4232262;82;39511;-86
2022/12/03 04:59:19;;;;;;;113.47;35.63;;;;;;;-1.10;100.00;99821.25;4186396;84;21586;-85
2022/12/03 05:05:20;;;;;;;110.55;34.60;;;;;;;-1.11;100.00;99832.53;4178158;84;21545;-85
2022/12/03 05:11:21;;;;;;;108.87;35.08;;;;;;;-1.14;100.00;99836.34;4184458;83;21576;-86
2022/12/03 05:17:23;;;;;;;119.75;35.78;;;;;;;-1.10;100.00;99836.03;4090569;85;21142;-86
2022/12/03 05:23:24;;;;;;;119.67;36.68;;;;;;;-1.06;100.00;99829.00;4185921;83;21082;-87
2022/12/03 05:29:25;;;;;;;115.30;36.80;;;;;;;-1.06;100.00;99822.28;4194063;84;21071;-85
2022/12/03 05:35:29;;;;;;;101.27;33.90;;;;;;;-1.05;100.00;99822.56;4175530;84;22102;-87
2022/12/03 05:47:54;;;;;;;113.42;37.03;;;;;;;-1.09;100.00;99831.72;4186537;83;20992;-85
2022/12/03 05:53:55;;;;;;;101.20;34.15;;;;;;;-1.08;100.00;99825.25;4110040;85;21064;-86
2022/12/03 05:59:57;;;;;;;102.12;32.48;;;;;;;-1.11;100.00;99817.75;4173334;84;20963;-86
2022/12/03 06:05:59;;;;;;;92.42;30.95;;;;;;;-1.28;100.00;99805.80;4214814;84;21542;-86
2022/12/03 06:12:01;;;;;;;88.17;32.73;;;;;;;-1.22;100.00;99826.95;4108880;85;21512;-86
2022/12/03 06:18:20;;;;;;;110.87;35.43;;;;;;;-1.26;100.00;99828.61;4197820;84;21004;-87
2022/12/03 06:24:20;;;;;;;111.52;35.55;;;;;;;-1.27;100.00;99820.83;4195073;83;21016;-86
2022/12/03 06:30:21;;;;;;;110.93;35.83;;;;;;;-1.22;100.00;99825.61;4189785;83;21064;-87
2022/12/03 06:36:24;;;;;;;102.73;34.60;;;;;;;-1.24;100.00;99821.08;4103645;85;21078;-87
2022/12/03 06:42:26;;;;;;;102.35;34.70;;;;;;;-1.24;100.00;99821.61;4104371;85;21031;-86
2022/12/03 06:48:27;;;;;;;103.47;35.50;;;;;;;-1.26;100.00;99844.72;4096304;84;21518;-87
2022/12/03 06:54:28;;;;;;;105.47;35.83;;;;;;;-1.25;100.00;99845.53;4113434;85;21039;-87
2022/12/03 07:00:30;;;;;;;100.47;35.43;;;;;;;-1.27;100.00;99845.81;4111563;85;21497;-87
2022/12/03 07:06:31;;;;;;;98.55;34.83;;;;;;;-1.33;100.00;99841.52;4107738;85;21016;-86
2022/12/03 07:12:33;;;;;;;97.53;33.50;;;;;;;-1.30;100.00;99859.77;4119497;84;20967;-87
2022/12/03 07:18:35;;;;;;;94.70;32.97;;;;;;;-1.30;100.00;99855.73;4198873;84;21510;-87
2022/12/03 07:24:37;;;;;;;113.50;35.63;;;;;;;-1.40;100.00;99856.34;4166019;84;21024;-86
2022/12/03 07:30:38;;;;;;;105.78;36.33;;;;;;;-1.38;100.00;99857.69;4167388;84;20980;-86
2022/12/03 07:36:40;;;;;;;109.17;38.30;;;;;;;-1.30;100.00;99866.48;4252512;82;21108;-86
2022/12/03 07:42:42;;;;;;;99.58;33.53;;;;;;;-1.19;100.00;99863.23;4267668;82;21092;-87
2022/12/03 07:48:43;;;;;;;105.60;36.97;;;;;;;-1.18;100.00;99858.92;4254967;82;20998;-87
2022/12/03 07:55:05;;;;;;;124.73;39.43;;;;;;;-1.23;100.00;99862.16;4249501;82;21085;-88
2022/12/03 08:01:09;;;;;;;123.10;38.87;;;;;;;-1.27;100.00;99855.75;4150752;84;21588;-86
2022/12/03 08:07:10;;;;;;;124.87;39.90;;;;;;;-1.21;100.00;99858.66;4246862;82;21002;-86
2022/12/03 08:13:17;;;;;;;118.23;39.27;;;;;;;-1.16;100.00;99847.33;4265853;82;20981;-87
2022/12/03 08:19:18;;;;;;;104.25;34.88;;;;;;;-1.12;100.00;99848.94;4263896;82;20993;-87
2022/12/03 08:25:30;;;;;;;99.32;33.92;;;;;;;-1.16;100.00;99844.65;4261073;81;20993;-87
2022/12/03 08:31:31;;;;;;;110.30;37.73;;;;;;;-1.23;100.00;99850.07;4334342;81;21009;-87
2022/12/03 08:37:35;;;;;;;121.30;40.15;;;;;;;-1.24;100.00;99851.16;4321551;81;21008;-86
2022/12/03 08:43:41;;;;;;;118.02;38.42;;;;;;;-1.12;100.00;99856.99;4311941;81;20988;-87
2022/12/03 08:49:39;;;;;;;122.98;38.90;;;;;;;-1.04;100.00;99853.19;4331249;81;20989;-87
2022/12/03 08:55:54;;;;;;;112.85;39.83;;;;;;;-0.97;100.00;99837.55;4320602;81;20988;-87
2022/12/03 09:01:58;;;;;;;120.35;38.95;;;;;;;-0.93;100.00;99856.08;4139807;84;21571;-87
2022/12/03 09:07:59;;;;;;;124.65;41.33;;;;;;;-0.93;100.00;99856.61;4314067;81;21584;-89
2022/12/03 09:14:05;;;;;;;118.22;39.03;;;;;;;-0.74;100.00;99862.93;4292498;81;21045;-87
2022/12/03 09:20:07;;;;;;;103.53;37.45;;;;;;;-0.74;100.00;99862.93;4329539;81;21063;-88
2022/12/03 09:26:09;;;;;;;117.80;40.65;;;;;;;-0.71;100.00;99858.34;4291294;81;21049;-89
2022/12/03 09:32:10;;;;;;;123.82;40.60;;;;;;;-0.69;100.00;99856.17;4265190;82;21136;-88
2022/12/03 09:38:11;;;;;;;137.12;43.20;;;;;;;-0.69;100.00;99850.23;4268728;82;20989;-88
2022/12/03 09:44:15;;;;;;;123.75;41.55;;;;;;;-0.64;100.00;99857.49;4278036;82;21021;-87
2022/12/03 09:50:23;;;;;;;129.00;47.85;;;;;;;-0.63;100.00;99855.86;4237743;82;21901;-88
2022/12/03 09:56:27;;;;;;;127.20;42.55;;;;;;;-0.60;100.00;99853.95;4249517;82;20978;-88
2022/12/03 10:02:29;;;;;;;128.27;43.45;;;;;;;-0.58;100.00;99845.05;4300886;82;20953;-88
2022/12/03 10:08:31;;;;;;;122.30;42.13;;;;;;;-0.58;100.00;99845.05;4257071;82;21014;-88
2022/12/03 10:14:33;;;;;;;134.47;43.55;;;;;;;-0.57;100.00;99845.33;4293114;82;21037;-89
2022/12/03 10:20:37;;;;;;;129.32;42.70;;;;;;;-0.55;100.00;99830.25;4273763;82;21072;-88
2022/12/03 10:26:41;;;;;;;127.58;43.63;;;;;;;-0.56;100.00;99829.97;4287854;82;21009;-89
2022/12/03 10:32:47;;;;;;;127.47;43.92;;;;;;;-0.59;100.00;99834.03;4248603;82;20987;-89
2022/12/03 10:39:15;;;;;;;134.20;49.07;;;;;;;-0.55;100.00;99833.72;4278099;82;21545;-88
2022/12/03 10:45:21;;;;;;;134.55;44.93;;;;;;;-0.53;100.00;99833.44;4269411;82;21017;-89
2022/12/03 10:51:22;;;;;;;143.32;48.80;;;;;;;-0.59;100.00;99819.78;4278003;82;20953;-88
2022/12/03 10:57:24;;;;;;;140.50;46.60;;;;;;;-0.52;100.00;99829.69;4275599;82;21037;-89
2022/12/03 11:03:29;;;;;;;152.43;48.00;;;;;;;-0.42;100.00;99822.31;4263179;82;21076;-88
2022/12/03 11:09:32;;;;;;;145.62;49.00;;;;;;;-0.42;100.00;99822.31;4265259;82;21037;-89
2022/12/03 11:15:44;;;;;;;150.35;48.83;;;;;;;-0.37;100.00;99818.77;4278539;82;21000;-89
2022/12/03 11:22:10;;;;;;;148.82;45.85;;;;;;;-0.35;100.00;99820.11;4254076;82;21077;-88
2022/12/03 11:28:20;;;;;;;148.68;47.35;;;;;;;-0.32;100.00;99820.89;4279110;82;21636;-89
2022/12/03 11:34:35;;;;;;;133.95;45.43;;;;;;;-0.41;100.00;99798.36;4270713;82;21038;-88
2022/12/03 11:40:36;;;;;;;147.80;46.33;;;;;;;-0.47;100.00;99777.98;4300507;82;21489;-89
2022/12/03 11:46:43;;;;;;;139.43;46.70;;;;;;;-0.47;100.00;99777.98;4249753;82;21534;-89
2022/12/03 11:52:51;;;;;;;152.17;47.10;;;;;;;-0.34;100.00;99799.38;4211589;83;21041;-89
2022/12/03 11:59:05;;;;;;;154.05;49.10;;;;;;;-0.28;100.00;99798.23;4294848;81;21001;-88
2022/12/03 12:05:27;;;;;;;158.12;46.13;;;;;;;-0.33;100.00;99772.19;4243250;81;168157;-88
2022/12/03 12:11:32;;;;;;;145.85;48.17;;;;;;;-0.33;100.00;99772.19;4287658;82;20970;-88
2022/12/03 12:17:36;;;;;;;136.20;45.12;;;;;;;-0.28;100.00;99795.01;4274606;80;21529;-88
2022/12/03 12:23:38;;;;;;;142.37;43.38;;;;;;;-0.29;100.00;99789.91;4271770;82;21053;-88
2022/12/03 12:29:43;;;;;;;138.10;44.05;;;;;;;-0.32;100.00;99793.98;4277316;82;21656;-89
2022/12/03 12:35:44;;;;;;;145.07;44.50;;;;;;;-0.30;100.00;99795.05;4280629;82;21072;-88
2022/12/03 12:41:50;;;;;;;146.07;44.25;;;;;;;-0.30;100.00;99786.97;4185448;83;21053;-88
2022/12/03 12:48:26;;;;;;;130.20;42.88;;;;;;;-0.29;100.00;99781.31;4207358;83;20998;-88
2022/12/03 12:54:27;;;;;;;142.18;45.60;;;;;;;-0.28;100.00;99780.20;4212905;83;21050;-87
2022/12/03 13:00:28;;;;;;;143.05;43.92;;;;;;;-0.28;100.00;99772.14;4213167;83;21007;-87
2022/12/03 13:06:31;;;;;;;124.38;42.53;;;;;;;-0.32;100.00;99778.38;4210186;82;21066;-88
2022/12/03 13:12:35;;;;;;;150.87;45.48;;;;;;;-0.32;100.00;99778.38;4285472;80;21092;-87
2022/12/03 13:18:53;;;;;;;153.23;47.60;;;;;;;-0.29;100.00;99780.49;4290810;80;21840;-88
2022/12/03 13:24:58;;;;;;;152.85;43.80;;;;;;;-0.41;100.00;99755.88;4182123;84;22025;-88
2022/12/03 13:31:16;;;;;;;131.35;42.45;;;;;;;-0.34;100.00;99768.44;4207281;82;22068;-87
2022/12/03 13:37:26;;;;;;;143.43;43.60;;;;;;;-0.34;100.00;99779.20;4211104;83;21019;-87
2022/12/03 13:43:31;;;;;;;131.70;43.13;;;;;;;-0.41;100.00;99783.56;4208860;83;21909;-89
2022/12/03 13:49:33;;;;;;;153.90;47.35;;;;;;;-0.43;100.00;99780.37;4211323;83;21046;-87
2022/12/03 13:55:40;;;;;;;152.68;42.83;;;;;;;-0.27;100.00;99798.52;4211388;83;21026;-87
2022/12/03 14:01:43;;;;;;;115.17;34.00;;;;;;;-0.23;100.00;99797.66;4202962;83;21030;-87
2022/12/03 14:07:48;;;;;;;;;;;;;;;-0.24;100.00;99796.06;4214629;83;20956;-87
2022/12/03 14:13:49;;;;;;;153.72;46.33;;;;;;;-0.23;100.00;99797.66;4214463;83;20130;-88
2022/12/03 14:19:51;;;;;;;133.07;41.13;;;;;;;-0.24;100.00;99800.63;4213083;83;20974;-88
2022/12/03 14:25:52;;;;;;;134.52;42.15;;;;;;;-0.33;100.00;99795.05;4213260;83;21199;-87
2022/12/03 14:31:54;;;;;;;157.35;43.90;;;;;;;-0.33;100.00;99795.05;4228633;83;21552;-87
2022/12/03 14:37:58;;;;;;;158.32;46.45;;;;;;;-0.32;100.00;99791.83;4232509;83;21050;-88
2022/12/03 14:43:59;;;;;;;144.97;43.78;;;;;;;-0.32;100.00;99791.83;4227076;83;20998;-88
2022/12/03 14:50:03;;;;;;;159.05;48.60;;;;;;;-0.43;100.00;99776.34;4227720;83;21073;-87
2022/12/03 14:56:05;;;;;;;146.05;42.62;;;;;;;-0.35;100.00;99787.02;4229898;83;22000;-88
2022/12/03 15:02:09;;;;;;;146.70;42.78;;;;;;;-0.35;100.00;99794.55;4227335;83;21023;-89
2022/12/03 15:08:19;;;;;;;140.45;41.50;;;;;;;-0.36;100.00;99814.45;4225135;83;21046;-88
2022/12/03 15:14:22;;;;;;;162.70;42.83;;;;;;;-0.38;100.00;99813.14;4228379;83;21058;-88
2022/12/03 15:20:24;;;;;;;134.75;41.98;;;;;;;-0.37;100.00;99817.42;4227820;83;21081;-88
2022/12/03 15:26:26;;;;;;;160.05;48.25;;;;;;;-0.32;100.00;99820.08;4234295;81;21057;-89
2022/12/03 15:32:28;;;;;;;124.10;40.00;;;;;;;-0.39;100.00;99800.23;4282587;82;21072;-88
2022/12/03 15:38:30;;;;;;;139.12;40.45;;;;;;;-0.34;100.00;99823.58;4281874;82;21034;-88
2022/12/03 15:44:31;;;;;;;134.75;43.02;;;;;;;-0.35;100.00;99821.98;4278111;82;21541;-88
2022/12/03 15:50:33;;;;;;;131.05;42.65;;;;;;;-0.38;100.00;99828.75;4281644;81;21671;-89
2022/12/03 15:56:36;;;;;;;151.10;45.85;;;;;;;-0.37;100.00;99818.24;4285803;82;21054;-88
2022/12/03 16:02:46;;;;;;;137.60;44.98;;;;;;;-0.50;100.00;99789.30;4163995;83;21065;-89
2022/12/03 16:08:48;;;;;;;153.85;49.18;;;;;;;-0.34;100.00;99814.98;4277660;82;21661;-88
2022/12/03 16:14:50;;;;;;;147.28;48.10;;;;;;;-0.34;100.00;99821.70;4284178;81;21641;-88
2022/12/03 16:20:52;;;;;;;138.30;44.25;;;;;;;-0.34;100.00;99827.09;4278596;82;20997;-88
2022/12/03 16:26:54;;;;;;;140.18;44.05;;;;;;;-0.33;100.00;99827.34;4282651;82;20997;-88
2022/12/03 16:32:55;;;;;;;142.13;42.55;;;;;;;-0.33;100.00;99819.27;4280024;82;21818;-89
2022/12/03 16:38:57;;;;;;;142.40;46.95;;;;;;;-0.34;100.00;99813.64;4282674;82;21056;-87
2022/12/03 16:51:05;;;;;;;135.68;43.85;;;;;;;-0.29;100.00;99827.58;4276868;82;21057;-89
2022/12/03 16:57:06;;;;;;;145.00;45.85;;;;;;;-0.28;100.00;99823.25;4280174;82;21303;-88
2022/12/03 17:03:08;;;;;;;145.82;45.67;;;;;;;-0.27;100.00;99814.66;4286140;82;21021;-87
2022/12/03 17:09:10;;;;;;;135.65;44.70;;;;;;;-0.28;100.00;99811.68;4287219;82;21703;-88
2022/12/03 17:15:11;;;;;;;146.60;46.75;;;;;;;-0.22;100.00;99818.08;4282761;80;21529;-88
2022/12/03 17:21:13;;;;;;;143.00;47.60;;;;;;;-0.22;100.00;99818.08;4283425;82;21971;-88
2022/12/03 17:27:14;;;;;;;146.25;45.80;;;;;;;-0.27;100.00;99803.33;4279341;81;21049;-88
2022/12/03 17:33:16;;;;;;;158.27;47.45;;;;;;;-0.21;100.00;99804.91;4277382;80;21045;-89
2022/12/03 17:39:17;;;;;;;161.47;49.70;;;;;;;-0.24;100.00;99781.80;4282802;82;21017;-87
2022/12/03 17:45:19;;;;;;;167.70;51.40;;;;;;;-0.24;100.00;99781.80;4281119;82;21002;-87
2022/12/03 17:51:20;;;;;;;151.95;48.70;;;;;;;-0.11;100.00;99804.00;4279657;82;20978;-87
2022/12/03 17:57:23;;;;;;;153.07;48.80;;;;;;;-0.10;100.00;99790.25;4274125;82;21053;-88
2022/12/03 18:03:25;;;;;;;157.52;48.78;;;;;;;-0.08;100.00;99797.48;4280696;82;21967;-87
2022/12/03 18:09:26;;;;;;;145.75;46.90;;;;;;;-0.07;100.00;99788.34;4278286;80;20990;-89
2022/12/03 18:15:28;;;;;;;170.60;52.27;;;;;;;-0.06;100.00;99789.92;4278587;82;21029;-89
2022/12/03 18:21:32;;;;;;;156.18;49.23;;;;;;;-0.06;100.00;99772.44;4277271;82;21411;-87
2022/12/03 18:27:40;;;;;;;156.02;49.03;;;;;;;-0.03;100.00;99776.43;4270726;81;20993;-88
2022/12/03 18:33:44;;;;;;;167.93;53.58;;;;;;;-0.01;100.00;99759.45;4263724;82;21006;-87
2022/12/03 18:39:46;;;;;;;176.87;58.02;;;;;;;-0.01;100.00;99759.45;4193921;83;21061;-87
2022/12/03 18:46:04;;;;;;;192.20;58.45;;;;;;;0.01;100.00;99766.71;4208257;83;21023;-88
2022/12/03 18:52:05;;;;;;;166.35;53.25;;;;;;;0.02;100.00;99760.79;4189717;83;20975;-88
2022/12/03 18:58:06;;;;;;;158.45;51.18;;;;;;;0.03;100.00;99748.39;4210476;83;21017;-88
2022/12/03 19:04:14;;;;;;;170.92;52.88;;;;;;;0.03;100.00;99751.08;4206476;83;21089;-88
2022/12/03 19:10:21;;;;;;;168.35;56.20;;;;;;;0.03;100.00;99754.31;4090733;81;10000117;-89
2022/12/03 19:16:25;;;;;;;161.92;50.30;;;;;;;0.02;100.00;99750.80;4208481;83;21210;-88
2022/12/03 19:22:28;;;;;;;181.47;58.15;;;;;;;0.02;100.00;99750.80;4212366;83;21163;-89
2022/12/03 19:28:30;;;;;;;152.20;53.13;;;;;;;0.05;100.00;99744.06;4212384;83;21035;-89
2022/12/03 19:34:32;;;;;;;144.93;51.70;;;;;;;0.03;100.00;99738.41;4195204;82;21057;-87
2022/12/03 19:40:34;;;;;;;139.97;50.10;;;;;;;0.02;100.00;99753.50;4194094;83;21391;-88
2022/12/03 19:46:35;;;;;;;143.57;52.53;;;;;;;-0.01;100.00;99746.81;4214393;83;20967;-88
2022/12/03 19:52:37;;;;;;;134.27;49.08;;;;;;;-0.01;100.00;99746.81;4212366;83;21022;-88
2022/12/03 19:58:41;;;;;;;140.47;50.98;;;;;;;-0.02;100.00;99733.08;4209911;83;21006;-88
2022/12/03 20:04:42;;;;;;;123.40;47.25;;;;;;;-0.02;100.00;99739.80;4211386;83;20956;-89
2022/12/03 20:10:44;;;;;;;129.18;50.83;;;;;;;-0.04;100.00;99739.84;4213090;83;22015;-87
2022/12/03 20:16:46;;;;;;;127.62;49.42;;;;;;;-0.04;100.00;99739.84;4207359;83;20995;-86
2022/12/03 20:22:47;;;;;;;125.15;49.13;;;;;;;-0.03;100.00;99753.02;4214102;83;20952;-87
2022/12/03 20:28:51;;;;;;;127.35;47.93;;;;;;;-0.06;100.00;99754.12;4215920;83;20967;-87
2022/12/03 20:34:54;;;;;;;127.62;50.15;;;;;;;-0.07;100.00;99751.19;4222465;82;21066;-85
2022/12/03 20:40:57;;;;;;;132.00;52.00;;;;;;;-0.10;100.00;99743.69;4209082;83;21035;-87
2022/12/03 20:46:58;;;;;;;134.72;52.70;;;;;;;-0.11;100.00;99747.48;4187121;83;21058;-88
2022/12/03 20:53:00;;;;;;;112.20;46.58;;;;;;;-0.12;100.00;99747.20;4214031;82;20979;-88
2022/12/03 20:59:05;;;;;;;140.40;52.40;;;;;;;-0.13;100.00;99741.58;4209447;83;21011;-88
2022/12/03 21:05:07;;;;;;;151.78;60.70;;;;;;;-0.13;100.00;99742.92;4217338;83;21014;-87
2022/12/03 21:11:12;;;;;;;120.10;47.75;;;;;;;-0.17;100.00;99729.23;4212155;82;21051;-87
2022/12/03 21:17:13;;;;;;;131.90;50.20;;;;;;;-0.18;100.00;99730.33;4209853;82;21002;-87
2022/12/03 21:23:15;;;;;;;137.82;51.05;;;;;;;-0.20;100.00;99723.08;4211370;83;20989;-87
2022/12/03 21:29:17;;;;;;;129.05;46.65;;;;;;;-0.26;100.00;99716.70;4220640;83;21069;-87
2022/12/03 21:35:18;;;;;;;137.92;54.45;;;;;;;-0.26;100.00;99716.70;4205962;83;21704;-87
2022/12/03 21:41:20;;;;;;;126.38;50.80;;;;;;;-0.10;100.00;99727.55;4230063;83;21034;-87
2022/12/03 21:47:21;;;;;;;131.25;51.02;;;;;;;-0.10;100.00;99716.78;4231003;83;21499;-88
2022/12/03 21:53:25;;;;;;;140.20;51.77;;;;;;;-0.18;100.00;99700.73;4228273;83;21037;-87
2022/12/03 21:59:26;;;;;;;135.15;52.55;;;;;;;-0.18;100.00;99700.73;4230481;83;22324;-88
2022/12/03 22:05:28;;;;;;;143.62;55.15;;;;;;;-0.05;100.00;99732.31;4229857;83;21054;-87
2022/12/03 22:11:30;;;;;;;136.32;50.98;;;;;;;-0.06;100.00;99729.37;4226104;83;21042;-88
2022/12/03 22:17:35;;;;;;;136.35;48.95;;;;;;;-0.05;100.00;99725.58;4231681;83;21102;-88
2022/12/03 22:23:40;;;;;;;121.60;46.08;;;;;;;-0.04;100.00;99725.05;4230922;83;21014;-88
2022/12/03 22:29:41;;;;;;;124.90;49.65;;;;;;;-0.04;100.00;99729.08;4221568;81;21689;-87
2022/12/03 22:35:43;;;;;;;120.00;45.20;;;;;;;-0.13;100.00;99716.83;4287007;81;21209;-88
2022/12/03 22:41:44;;;;;;;109.07;41.40;;;;;;;-0.01;100.00;99744.66;4284359;82;21479;-88
2022/12/03 22:47:46;;;;;;;114.52;41.42;;;;;;;-0.05;100.00;99736.91;4186741;84;21018;-88
2022/12/03 22:53:56;;;;;;;121.50;45.85;;;;;;;-0.05;100.00;99736.91;4210542;83;21002;-86
2022/12/03 22:59:58;;;;;;;132.15;48.08;;;;;;;-0.05;100.00;99734.22;4214852;83;21554;-87
2022/12/03 23:06:09;;;;;;;118.85;46.40;;;;;;;-0.06;100.00;99728.56;4214811;83;21054;-88
2022/12/03 23:12:14;;;;;;;139.00;50.65;;;;;;;-0.03;100.00;99731.48;4221813;82;21086;-88
2022/12/03 23:18:18;;;;;;;125.10;51.53;;;;;;;-0.06;100.00;99738.79;4209966;83;21466;-87
2022/12/03 23:24:22;;;;;;;127.92;52.62;;;;;;;-0.10;100.00;99724.31;4212047;83;21066;-87
2022/12/03 23:30:23;;;;;;;137.70;53.63;;;;;;;-0.14;100.00;99721.92;4192230;84;21039;-88
2022/12/03 23:36:31;;;;;;;131.03;51.55;;;;;;;-0.20;100.00;99717.70;4184154;82;21005;-88
2022/12/03 23:42:32;;;;;;;124.20;49.98;;;;;;;-0.20;100.00;99729.81;4189753;84;21636;-87
2022/12/03 23:48:33;;;;;;;125.25;48.28;;;;;;;-0.21;100.00;99726.87;4183929;83;21048;-86
2022/12/03 23:54:37;;;;;;;126.72;50.35;;;;;;;-0.20;100.00;99719.05;4190736;84;21081;-88
